YRLOC EDFH-
Flight info
| Callsign | YRLOC |
|---|---|
| Flight time | N/A |
| Altitude | |
| Route | |
| Aircraft | PA24 |
Departure
| Time | 2026-04-30 17:41 |
|---|---|
| Airport | Frankfurt-Hahn Airport (EDFH) |
Arrival
| Time | N/A |
|---|---|
| Airport | - |
| Time | Latitude | Longitude | Altitude | Speed | Heading |
|---|---|---|---|---|---|
| 2026-04-30 17:39 | 49.92790 | 7.25111 | 2473 ft | 91 kts | 80° |
| 2026-04-30 17:41 | 49.91146 | 7.23681 | 2790 ft | 91 kts | 341° |
| 2026-04-30 17:42 | 49.92291 | 7.23828 | 2215 ft | 80 kts | 27° |
| 2026-04-30 17:42 | 49.93350 | 7.25623 | 2345 ft | 91 kts | 91° |
| 2026-04-30 17:43 | 49.92315 | 7.26006 | 2826 ft | 107 kts | 220° |
| 2026-04-30 17:44 | 49.90704 | 7.24083 | 2747 ft | 95 kts | 220° |
| 2026-04-30 17:44 | 49.89149 | 7.22244 | 2627 ft | 93 kts | 227° |
| 2026-04-30 17:46 | 49.89208 | 7.20177 | 2519 ft | 85 kts | 51° |
| 2026-04-30 17:47 | 49.90969 | 7.22559 | 2428 ft | 84 kts | 25° |
| 2026-04-30 17:48 | 49.92987 | 7.24538 | 1891 ft | 87 kts | 27° |
| 2026-04-30 17:48 | 49.94350 | 7.25874 | 1696 ft | 98 kts | 29° |
| 2026-04-30 17:49 | 49.96265 | 7.29347 | 2911 ft | 130 kts | 111° |
| 2026-04-30 17:50 | 49.93895 | 7.29594 | 3138 ft | 99 kts | 229° |
| 2026-04-30 17:51 | 49.92486 | 7.27265 | 2990 ft | 99 kts | 230° |
| 2026-04-30 17:52 | 49.90828 | 7.25361 | 2850 ft | 100 kts | 212° |
| 2026-04-30 17:53 | 49.87915 | 7.22547 | 2679 ft | 97 kts | 226° |
| 2026-04-30 17:54 | 49.89047 | 7.20844 | 2476 ft | 107 kts | 19° |
| 2026-04-30 17:55 | 49.91427 | 7.23015 | 2330 ft | 100 kts | 27° |
| 2026-04-30 17:56 | 49.93508 | 7.25057 | 1639 ft | 57 kts | 28° |
| 2026-04-30 17:57 | 49.94980 | 7.26503 | 2166 ft | 107 kts | 28° |
| 2026-04-30 17:58 | 49.96913 | 7.27171 | 3061 ft | 101 kts | 305° |
| 2026-04-30 17:59 | 49.95329 | 7.24359 | 3693 ft | 96 kts | 215° |
| 2026-04-30 18:00 | 49.92983 | 7.22797 | 3389 ft | 89 kts | 199° |
| 2026-04-30 18:00 | 49.93233 | 7.24795 | 1853 ft | 93 kts | 40° |
| 2026-04-30 18:01 | 49.94142 | 7.25672 | 1632 ft | 83 kts | 26° |
| 2026-04-30 18:02 | 49.95849 | 7.27242 | 2497 ft | 104 kts | 11° |
| 2026-04-30 18:02 | 49.96056 | 7.25419 | 3456 ft | 109 kts | 209° |
| 2026-04-30 18:03 | 49.94066 | 7.23757 | 3706 ft | 105 kts | 212° |
| 2026-04-30 18:04 | 49.92181 | 7.22230 | 3414 ft | 103 kts | 205° |
| 2026-04-30 18:05 | 49.93175 | 7.24696 | 1762 ft | 94 kts | 34° |
| 2026-04-30 18:06 | 49.94976 | 7.26537 | 2075 ft | 90 kts | 27° |
| 2026-04-30 18:07 | 49.96335 | 7.25383 | 3159 ft | 105 kts | 210° |
| 2026-04-30 18:08 | 49.94243 | 7.24106 | 3602 ft | 106 kts | 211° |
| 2026-04-30 18:09 | 49.91762 | 7.22334 | 2979 ft | 92 kts | 154° |
| 2026-04-30 18:10 | 49.93072 | 7.24618 | 1689 ft | 83 kts | 27° |
| 2026-04-30 18:11 | 49.95025 | 7.26168 | 2280 ft | 99 kts | 350° |
| 2026-04-30 18:11 | 49.94644 | 7.24175 | 3116 ft | 107 kts | 210° |
| 2026-04-30 18:12 | 49.92735 | 7.22734 | 3032 ft | 95 kts | 207° |
| 2026-04-30 18:13 | 49.92150 | 7.23879 | 2281 ft | 98 kts | 40° |
| 2026-04-30 18:13 | 49.93508 | 7.25047 | 1638 ft | 57 kts | 28° |
| 2026-04-30 18:14 | 49.94478 | 7.25939 | 1945 ft | 84 kts | 25° |
| 2026-04-30 18:15 | 49.96067 | 7.26181 | 2890 ft | 96 kts | 303° |
| 2026-04-30 18:15 | 49.94851 | 7.24248 | 3216 ft | 106 kts | 204° |
| 2026-04-30 18:16 | 49.93481 | 7.23450 | 3066 ft | 105 kts | 207° |
| 2026-04-30 18:16 | 49.92185 | 7.22852 | 2762 ft | 100 kts | 162° |
| 2026-04-30 18:17 | 49.91940 | 7.23775 | 2421 ft | 107 kts | 77° |
| 2026-04-30 18:17 | 49.92481 | 7.24288 | 2026 ft | 95 kts | 3° |
| 2026-04-30 18:17 | 49.93495 | 7.25035 | 1638 ft | 58 kts | 27° |
| 2026-04-30 18:18 | 49.93879 | 7.25411 | 1694 ft | 82 kts | 28° |
| 2026-04-30 18:18 | 49.94383 | 7.25923 | 1985 ft | 92 kts | 29° |
| 2026-04-30 18:18 | 49.94913 | 7.26557 | 2355 ft | 98 kts | 32° |
| 2026-04-30 18:18 | 49.95478 | 7.27092 | 2769 ft | 98 kts | 12° |
| 2026-04-30 18:19 | 49.96152 | 7.27070 | 3029 ft | 100 kts | 337° |
| 2026-04-30 18:19 | 49.96775 | 7.26581 | 3260 ft | 101 kts | 324° |
| 2026-04-30 18:19 | 49.97351 | 7.25987 | 3501 ft | 101 kts | 319° |
| 2026-04-30 18:19 | 49.97888 | 7.25303 | 3717 ft | 97 kts | 314° |
| 2026-04-30 18:20 | 49.98396 | 7.24581 | 3755 ft | 100 kts | 314° |
| 2026-04-30 18:20 | 49.98894 | 7.23859 | 3770 ft | 94 kts | 311° |
| 2026-04-30 18:20 | 49.99342 | 7.23165 | 3772 ft | 89 kts | 311° |
| 2026-04-30 18:20 | 49.99771 | 7.22476 | 3724 ft | 88 kts | 309° |
| 2026-04-30 18:21 | 50.00188 | 7.21769 | 3677 ft | 89 kts | 309° |
| 2026-04-30 18:21 | 50.00598 | 7.21061 | 3642 ft | 88 kts | 308° |
| 2026-04-30 18:21 | 50.01001 | 7.20341 | 3597 ft | 88 kts | 304° |
| 2026-04-30 18:21 | 50.01387 | 7.19603 | 3562 ft | 88 kts | 310° |
| 2026-04-30 18:22 | 50.01861 | 7.19001 | 3530 ft | 88 kts | 321° |
| 2026-04-30 18:22 | 50.02925 | 7.18040 | 3477 ft | 89 kts | 326° |
| 2026-04-30 18:22 | 50.03445 | 7.17509 | 3437 ft | 89 kts | 315° |
| 2026-04-30 18:23 | 50.03935 | 7.16937 | 3398 ft | 88 kts | 323° |
| 2026-04-30 18:23 | 50.04492 | 7.16520 | 3359 ft | 90 kts | 331° |
| 2026-04-30 18:23 | 50.05067 | 7.16144 | 3328 ft | 90 kts | 333° |
| 2026-04-30 18:23 | 50.05647 | 7.15798 | 3301 ft | 89 kts | 334° |
| 2026-04-30 18:24 | 50.06435 | 7.14507 | 3269 ft | 83 kts | 275° |
| 2026-04-30 18:24 | 50.06310 | 7.13684 | 3291 ft | 78 kts | 236° |
| 2026-04-30 18:24 | 50.05918 | 7.13088 | 3270 ft | 81 kts | 220° |
| 2026-04-30 18:25 | 50.05402 | 7.12794 | 3261 ft | 80 kts | 191° |
| 2026-04-30 18:25 | 50.04481 | 7.13666 | 3189 ft | 86 kts | 118° |
| 2026-04-30 18:25 | 50.04441 | 7.14586 | 3156 ft | 87 kts | 71° |
| 2026-04-30 18:26 | 50.05219 | 7.15906 | 3145 ft | 83 kts | 36° |
| 2026-04-30 18:26 | 50.05692 | 7.16513 | 3180 ft | 95 kts | 33° |
| 2026-04-30 18:26 | 50.06216 | 7.17169 | 3259 ft | 96 kts | 35° |
| 2026-04-30 18:27 | 50.07296 | 7.17675 | 3510 ft | 88 kts | 303° |
| 2026-04-30 18:27 | 50.07612 | 7.16691 | 3601 ft | 110 kts | 293° |
| 2026-04-30 18:28 | 50.07606 | 7.14649 | 3613 ft | 90 kts | 239° |
| 2026-04-30 18:28 | 50.07179 | 7.13753 | 3606 ft | 118 kts | 242° |
| 2026-04-30 18:28 | 50.06598 | 7.11263 | 3658 ft | 113 kts | 258° |
| 2026-04-30 18:29 | 50.06420 | 7.09971 | 3734 ft | 128 kts | 259° |
| 2026-04-30 18:29 | 50.05201 | 7.06928 | 3654 ft | 122 kts | 236° |
| 2026-04-30 18:30 | 50.04158 | 7.04999 | 3851 ft | 108 kts | 231° |
| 2026-04-30 18:30 | 50.03026 | 7.03267 | 4132 ft | 126 kts | 227° |
| 2026-04-30 18:31 | 50.02367 | 7.02283 | 4197 ft | 136 kts | 228° |
| 2026-04-30 18:31 | 50.01173 | 7.00197 | 4314 ft | 122 kts | 231° |
| 2026-04-30 18:32 | 50.00086 | 6.98394 | 4482 ft | 109 kts | 230° |
| 2026-04-30 18:32 | 49.99510 | 6.97534 | 4548 ft | 117 kts | 224° |
| 2026-04-30 18:32 | 49.98359 | 6.96119 | 4713 ft | 114 kts | 222° |
| 2026-04-30 18:33 | 49.97714 | 6.95368 | 4763 ft | 115 kts | 220° |
| 2026-04-30 18:33 | 49.96507 | 6.93960 | 4870 ft | 108 kts | 219° |
| 2026-04-30 18:33 | 49.95868 | 6.93336 | 4888 ft | 121 kts | 208° |
| 2026-04-30 18:34 | 49.95005 | 6.92634 | 4706 ft | 150 kts | 221° |
| 2026-04-30 18:34 | 49.94900 | 6.91801 | 3887 ft | 130 kts | 307° |
| 2026-04-30 18:34 | 49.95396 | 6.90839 | 4013 ft | 109 kts | 306° |
| 2026-04-30 18:35 | 49.95861 | 6.90018 | 4061 ft | 96 kts | 339° |
| 2026-04-30 18:35 | 49.96457 | 6.90376 | 4022 ft | 104 kts | 53° |
| 2026-04-30 18:35 | 49.96420 | 6.91482 | 3878 ft | 115 kts | 131° |
| 2026-04-30 18:36 | 49.95196 | 6.92938 | 3837 ft | 108 kts | 140° |
| 2026-04-30 18:36 | 49.94607 | 6.93672 | 3840 ft | 106 kts | 153° |
| 2026-04-30 18:36 | 49.93441 | 6.94888 | 3875 ft | 100 kts | 128° |
| 2026-04-30 18:37 | 49.93243 | 6.95913 | 3867 ft | 101 kts | 91° |
| 2026-04-30 18:37 | 49.93459 | 6.96935 | 3861 ft | 100 kts | 50° |
| 2026-04-30 18:37 | 49.94017 | 6.97526 | 3832 ft | 98 kts | 10° |
| 2026-04-30 18:37 | 49.94649 | 6.97383 | 3812 ft | 92 kts | 321° |
| 2026-04-30 18:38 | 49.94996 | 6.96626 | 3852 ft | 86 kts | 273° |
| 2026-04-30 18:38 | 49.94696 | 6.95894 | 3901 ft | 90 kts | 204° |
| 2026-04-30 18:38 | 49.94050 | 6.95836 | 3852 ft | 101 kts | 168° |
| 2026-04-30 18:38 | 49.93505 | 6.96518 | 3839 ft | 104 kts | 124° |
| 2026-04-30 18:39 | 49.93137 | 6.97509 | 3821 ft | 107 kts | 125° |
| 2026-04-30 18:39 | 49.92727 | 6.98486 | 3824 ft | 112 kts | 125° |
| 2026-04-30 18:39 | 49.92277 | 6.99577 | 3817 ft | 126 kts | 125° |
| 2026-04-30 18:39 | 49.91819 | 7.00753 | 3800 ft | 129 kts | 121° |
| 2026-04-30 18:40 | 49.91421 | 7.01995 | 3837 ft | 128 kts | 118° |
| 2026-04-30 18:40 | 49.91050 | 7.03235 | 3840 ft | 126 kts | 114° |
| 2026-04-30 18:40 | 49.90736 | 7.04495 | 3833 ft | 126 kts | 111° |
| 2026-04-30 18:40 | 49.90619 | 7.05847 | 3811 ft | 128 kts | 89° |
| 2026-04-30 18:41 | 49.90669 | 7.07239 | 3785 ft | 130 kts | 86° |
| 2026-04-30 18:41 | 49.90748 | 7.08643 | 3741 ft | 131 kts | 84° |
| 2026-04-30 18:41 | 49.90841 | 7.10040 | 3691 ft | 132 kts | 83° |
| 2026-04-30 18:41 | 49.90949 | 7.11452 | 3674 ft | 131 kts | 82° |
| 2026-04-30 18:42 | 49.91007 | 7.12870 | 3623 ft | 132 kts | 88° |
| 2026-04-30 18:42 | 49.90947 | 7.15691 | 3499 ft | 130 kts | 93° |
| 2026-04-30 18:42 | 49.90902 | 7.17077 | 3321 ft | 127 kts | 93° |
| 2026-04-30 18:45 | 49.94314 | 7.25837 | 1624 ft | 54 kts | 32° |
| 2026-04-30 18:45 | 49.94518 | 7.26040 | 1616 ft | 26 kts | 33° |
| 2026-04-30 18:45 | 49.94550 | 7.26183 | 1616 ft | 10 kts | 121° |
| 2026-04-30 18:46 | 49.94504 | 7.26293 | 1617 ft | 14 kts | 123° |
| 2026-04-30 18:46 | 49.94450 | 7.26420 | 1619 ft | 14 kts | 122° |
| 2026-04-30 18:46 | 49.94377 | 7.26446 | 1620 ft | 9 kts | 207° |
| 2026-04-30 18:46 | 49.94338 | 7.26474 | 1617 ft | 4 kts | 121° |
| 2026-04-30 18:47 | 49.94338 | 7.26475 | 1616 ft | 0 kts | 121° |